Kansas City International, MO

7:33 AM CST on March 01, 2015 (GMT -0600)
Kansas City Downtown | Change Station
CLOSE
Current Station
Airport
Location: Kansas City,
Elevation: 758 ft
Nearby Weather Stations
Active Advisory: Winter Weather Advisory Active Notice: Local Storm Report

Elev 758 ft 39.12 °N, 94.60 °W | Updated 39 minutes ago

Overcast
Overcast
24 °F
Feels Like 24 °F
N
0
Wind Variable Wind from North

Today
High -- | Low -- °F
--% Chance of Precip.
Yesterday
High -- | Low -- °F
Precip. -- in
6:51 AM 6:11 PM
Waxing Gibbous, 85% visible
Pressure 30.42 in
Visibility 8.0 miles
Clouds Overcast 4200 ft
Dew Point 20 °F
Humidity 84%
Rainfall 0.00 in
Snow Depth Not available.
UV 0 out of 12
Pollen .50 out of 12
Air Quality Not available.
Flu Activity Not available.
METAR KMKC 011254Z 00000KT 8SM OVC042 M04/M07 A3038 RMK AO2 SLP299 T10441067

More Conditions Fewer Conditions

Pressure 30.42 in
Visibility 8.0 miles
Clouds Overcast 4200 ft
Dew Point 20 °F
Humidity 84%
Rainfall 0.00 in
Snow Depth Not available.
UV 0 out of 12
Pollen .50 out of 12
Air Quality Not available.
Flu Activity Not available.
METAR KMKC 011254Z 00000KT 8SM OVC042 M04/M07 A3038 RMK AO2 SLP299 T10441067

More Conditions Fewer Conditions

10-Day Weather Forecast

Almanac

Astronomy

Mar. 01, 2015 Rise Set
Actual Time
Civil Twilight
Nautical Twilight
Astronomical Twilight
Moon
Length of Visible Light
Length of Day
Tomorrow will be .
, % of the Moon is Illuminated

Today's Extremes

State Highs State Lows

Community

WunderPhotos

Upload Photos

1,801,381 photos uploaded!

WunderBlogs® & News

Nearby

Air Quality

  Air Quality AQ Index Pollutant
Not available.

Snow Depth

Station Depth Elevation

Earthquake Activity

City Distance Mag. Time & Date
Minimum magnitude displayed is 2.5.

Coastal Water Temperatures

Place Temperature

Nearby Weather Stations

Winter Weather Advisory
Statement as of 3:29 AM CST on March 01, 2015

... Winter Weather Advisory remains in effect until 6 PM CST this
evening...

A Winter Weather Advisory for snow remains in effect until 6 PM CST
this evening.

* Timing... a band of snow will develop over the area this morning
with a second band expected late this morning into the afternoon.

* Snow accumulations... an additional half an inch to one inches of
snow are possible through this afternoon. Total accumulations will
range from 3 to 6 inches.

* Impacts... travel may be hazardous... .especially on any
untreated roadways while it is snowing.

Precautionary/preparedness actions...

A Winter Weather Advisory means that periods of snow... sleet... or
freezing rain will cause travel difficulties. Be prepared for
slippery roads and limited visibilities... and use caution while
driving.